sensor_id;sensor_type;location;lat;lon;timestamp;P1;durP1;ratioP1;P2;durP2;ratioP2
3207;SDS011;1616;52.394;9.756;2023-08-20T00:01:31;10.97;;;10.03;;
3207;SDS011;1616;52.394;9.756;2023-08-20T00:03:58;12.80;;;10.17;;
3207;SDS011;1616;52.394;9.756;2023-08-20T00:06:24;11.87;;;10.77;;
3207;SDS011;1616;52.394;9.756;2023-08-20T00:08:50;10.70;;;9.73;;
3207;SDS011;1616;52.394;9.756;2023-08-20T00:11:16;10.97;;;10.03;;
3207;SDS011;1616;52.394;9.756;2023-08-20T00:13:42;13.50;;;12.37;;
3207;SDS011;1616;52.394;9.756;2023-08-20T00:16:09;11.23;;;10.30;;
3207;SDS011;1616;52.394;9.756;2023-08-20T00:18:35;13.87;;;12.57;;
3207;SDS011;1616;52.394;9.756;2023-08-20T00:21:01;19.97;;;13.43;;
3207;SDS011;1616;52.394;9.756;2023-08-20T00:23:28;16.43;;;14.93;;
3207;SDS011;1616;52.394;9.756;2023-08-20T00:25:57;15.13;;;13.57;;
3207;SDS011;1616;52.394;9.756;2023-08-20T00:28:23;12.83;;;11.77;;
3207;SDS011;1616;52.394;9.756;2023-08-20T00:30:48;13.10;;;11.93;;
3207;SDS011;1616;52.394;9.756;2023-08-20T00:33:14;13.93;;;12.73;;
3207;SDS011;1616;52.394;9.756;2023-08-20T00:35:40;15.27;;;13.67;;
3207;SDS011;1616;52.394;9.756;2023-08-20T00:38:06;12.40;;;11.40;;
3207;SDS011;1616;52.394;9.756;2023-08-20T00:40:31;13.23;;;11.93;;
3207;SDS011;1616;52.394;9.756;2023-08-20T00:42:57;12.40;;;11.13;;
3207;SDS011;1616;52.394;9.756;2023-08-20T00:45:23;15.70;;;12.80;;
3207;SDS011;1616;52.394;9.756;2023-08-20T00:47:52;13.93;;;12.53;;
3207;SDS011;1616;52.394;9.756;2023-08-20T00:50:18;13.23;;;10.90;;
3207;SDS011;1616;52.394;9.756;2023-08-20T00:52:45;13.63;;;11.73;;
3207;SDS011;1616;52.394;9.756;2023-08-20T00:55:12;10.57;;;9.53;;
3207;SDS011;1616;52.394;9.756;2023-08-20T00:57:40;13.87;;;9.60;;
3207;SDS011;1616;52.394;9.756;2023-08-20T01:00:07;15.30;;;9.57;;
3207;SDS011;1616;52.394;9.756;2023-08-20T01:02:34;8.50;;;7.80;;
3207;SDS011;1616;52.394;9.756;2023-08-20T01:05:00;8.73;;;7.77;;
3207;SDS011;1616;52.394;9.756;2023-08-20T01:10:08;8.33;;;7.50;;
3207;SDS011;1616;52.394;9.756;2023-08-20T01:12:55;7.80;;;7.30;;
3207;SDS011;1616;52.394;9.756;2023-08-20T01:15:21;11.50;;;6.70;;
3207;SDS011;1616;52.394;9.756;2023-08-20T01:17:48;6.93;;;6.33;;
3207;SDS011;1616;52.394;9.756;2023-08-20T01:20:15;7.50;;;5.37;;
3207;SDS011;1616;52.394;9.756;2023-08-20T01:27:52;7.90;;;5.03;;
3207;SDS011;1616;52.394;9.756;2023-08-20T01:30:38;10.00;;;5.70;;
3207;SDS011;1616;52.394;9.756;2023-08-20T01:33:04;6.10;;;5.60;;
3207;SDS011;1616;52.394;9.756;2023-08-20T01:35:31;5.27;;;4.80;;
3207;SDS011;1616;52.394;9.756;2023-08-20T01:37:57;6.33;;;5.80;;
3207;SDS011;1616;52.394;9.756;2023-08-20T01:40:22;8.07;;;5.43;;
3207;SDS011;1616;52.394;9.756;2023-08-20T01:42:48;8.13;;;5.20;;
3207;SDS011;1616;52.394;9.756;2023-08-20T01:45:14;6.67;;;5.30;;
3207;SDS011;1616;52.394;9.756;2023-08-20T01:47:40;8.03;;;5.47;;
3207;SDS011;1616;52.394;9.756;2023-08-20T01:50:05;5.90;;;5.27;;
3207;SDS011;1616;52.394;9.756;2023-08-20T01:52:31;5.33;;;4.90;;
3207;SDS011;1616;52.394;9.756;2023-08-20T01:54:57;5.77;;;5.47;;
3207;SDS011;1616;52.394;9.756;2023-08-20T01:57:23;5.40;;;5.10;;
3207;SDS011;1616;52.394;9.756;2023-08-20T01:59:48;6.10;;;5.30;;
3207;SDS011;1616;52.394;9.756;2023-08-20T02:02:14;5.97;;;5.57;;
3207;SDS011;1616;52.394;9.756;2023-08-20T02:04:39;7.40;;;4.73;;
3207;SDS011;1616;52.394;9.756;2023-08-20T02:07:05;5.53;;;4.70;;
3207;SDS011;1616;52.394;9.756;2023-08-20T02:09:31;7.43;;;6.10;;
3207;SDS011;1616;52.394;9.756;2023-08-20T02:11:57;6.00;;;5.40;;
3207;SDS011;1616;52.394;9.756;2023-08-20T02:14:22;6.30;;;5.80;;
3207;SDS011;1616;52.394;9.756;2023-08-20T02:16:48;5.03;;;4.30;;
3207;SDS011;1616;52.394;9.756;2023-08-20T02:19:13;5.67;;;4.83;;
3207;SDS011;1616;52.394;9.756;2023-08-20T02:21:39;10.40;;;6.00;;
3207;SDS011;1616;52.394;9.756;2023-08-20T02:24:06;7.70;;;6.07;;
3207;SDS011;1616;52.394;9.756;2023-08-20T02:26:33;8.00;;;5.40;;
3207;SDS011;1616;52.394;9.756;2023-08-20T02:28:58;7.60;;;6.30;;
3207;SDS011;1616;52.394;9.756;2023-08-20T02:31:24;5.53;;;5.03;;
3207;SDS011;1616;52.394;9.756;2023-08-20T02:33:50;8.43;;;6.37;;
3207;SDS011;1616;52.394;9.756;2023-08-20T02:36:15;7.00;;;6.10;;
3207;SDS011;1616;52.394;9.756;2023-08-20T02:38:41;6.60;;;6.00;;
3207;SDS011;1616;52.394;9.756;2023-08-20T02:41:07;8.63;;;6.40;;
3207;SDS011;1616;52.394;9.756;2023-08-20T02:43:32;6.00;;;5.60;;
3207;SDS011;1616;52.394;9.756;2023-08-20T02:45:58;5.90;;;5.40;;
3207;SDS011;1616;52.394;9.756;2023-08-20T02:48:24;5.07;;;4.73;;
3207;SDS011;1616;52.394;9.756;2023-08-20T02:50:54;5.43;;;4.93;;
3207;SDS011;1616;52.394;9.756;2023-08-20T02:53:20;8.03;;;4.50;;
3207;SDS011;1616;52.394;9.756;2023-08-20T02:55:46;5.23;;;4.83;;
3207;SDS011;1616;52.394;9.756;2023-08-20T02:58:13;6.47;;;5.83;;
3207;SDS011;1616;52.394;9.756;2023-08-20T03:00:39;5.13;;;4.73;;
3207;SDS011;1616;52.394;9.756;2023-08-20T03:03:05;6.63;;;5.10;;
3207;SDS011;1616;52.394;9.756;2023-08-20T03:05:33;5.73;;;5.23;;
3207;SDS011;1616;52.394;9.756;2023-08-20T03:07:59;5.80;;;4.57;;
3207;SDS011;1616;52.394;9.756;2023-08-20T03:10:26;6.10;;;4.93;;
3207;SDS011;1616;52.394;9.756;2023-08-20T03:12:52;5.10;;;4.47;;
3207;SDS011;1616;52.394;9.756;2023-08-20T03:15:18;4.80;;;4.30;;
3207;SDS011;1616;52.394;9.756;2023-08-20T03:17:44;5.97;;;5.57;;
3207;SDS011;1616;52.394;9.756;2023-08-20T03:20:10;5.80;;;4.07;;
3207;SDS011;1616;52.394;9.756;2023-08-20T03:22:36;4.50;;;4.20;;
3207;SDS011;1616;52.394;9.756;2023-08-20T03:25:02;9.20;;;4.60;;
3207;SDS011;1616;52.394;9.756;2023-08-20T03:27:29;10.00;;;5.27;;
3207;SDS011;1616;52.394;9.756;2023-08-20T03:29:54;5.60;;;5.03;;
3207;SDS011;1616;52.394;9.756;2023-08-20T03:32:20;6.27;;;4.00;;
3207;SDS011;1616;52.394;9.756;2023-08-20T03:34:46;8.03;;;5.10;;
3207;SDS011;1616;52.394;9.756;2023-08-20T03:37:12;8.13;;;4.70;;
3207;SDS011;1616;52.394;9.756;2023-08-20T03:39:38;4.10;;;3.70;;
3207;SDS011;1616;52.394;9.756;2023-08-20T03:42:03;5.43;;;4.93;;
3207;SDS011;1616;52.394;9.756;2023-08-20T03:44:30;5.03;;;4.60;;
3207;SDS011;1616;52.394;9.756;2023-08-20T03:46:56;8.23;;;5.30;;
3207;SDS011;1616;52.394;9.756;2023-08-20T03:49:22;5.40;;;5.00;;
3207;SDS011;1616;52.394;9.756;2023-08-20T03:51:47;14.33;;;5.77;;
3207;SDS011;1616;52.394;9.756;2023-08-20T03:54:14;5.63;;;5.10;;
3207;SDS011;1616;52.394;9.756;2023-08-20T03:56:40;5.00;;;4.70;;
3207;SDS011;1616;52.394;9.756;2023-08-20T03:59:06;12.40;;;5.40;;
3207;SDS011;1616;52.394;9.756;2023-08-20T04:01:31;5.97;;;5.13;;
3207;SDS011;1616;52.394;9.756;2023-08-20T04:03:57;6.23;;;5.67;;
3207;SDS011;1616;52.394;9.756;2023-08-20T04:06:23;6.70;;;6.07;;
3207;SDS011;1616;52.394;9.756;2023-08-20T04:08:49;7.63;;;6.57;;
3207;SDS011;1616;52.394;9.756;2023-08-20T04:11:14;6.17;;;5.20;;
3207;SDS011;1616;52.394;9.756;2023-08-20T04:13:40;5.97;;;5.47;;
3207;SDS011;1616;52.394;9.756;2023-08-20T04:16:08;6.00;;;5.33;;
3207;SDS011;1616;52.394;9.756;2023-08-20T04:18:34;8.27;;;4.90;;
3207;SDS011;1616;52.394;9.756;2023-08-20T04:21:00;5.27;;;4.93;;
3207;SDS011;1616;52.394;9.756;2023-08-20T04:23:26;6.97;;;5.30;;
3207;SDS011;1616;52.394;9.756;2023-08-20T04:25:52;5.93;;;5.47;;
3207;SDS011;1616;52.394;9.756;2023-08-20T04:28:18;6.07;;;5.43;;
3207;SDS011;1616;52.394;9.756;2023-08-20T04:30:44;5.20;;;4.70;;
3207;SDS011;1616;52.394;9.756;2023-08-20T04:33:10;5.67;;;4.57;;
3207;SDS011;1616;52.394;9.756;2023-08-20T04:35:36;6.27;;;5.00;;
3207;SDS011;1616;52.394;9.756;2023-08-20T04:38:02;5.00;;;4.57;;
3207;SDS011;1616;52.394;9.756;2023-08-20T04:40:28;7.00;;;6.30;;
3207;SDS011;1616;52.394;9.756;2023-08-20T04:42:55;5.83;;;5.23;;
3207;SDS011;1616;52.394;9.756;2023-08-20T04:45:21;5.13;;;4.80;;
3207;SDS011;1616;52.394;9.756;2023-08-20T04:47:46;5.27;;;4.87;;
3207;SDS011;1616;52.394;9.756;2023-08-20T04:50:12;7.37;;;5.33;;
3207;SDS011;1616;52.394;9.756;2023-08-20T04:52:38;5.30;;;4.80;;
3207;SDS011;1616;52.394;9.756;2023-08-20T04:55:05;4.50;;;4.20;;
3207;SDS011;1616;52.394;9.756;2023-08-20T04:57:34;5.00;;;4.50;;
3207;SDS011;1616;52.394;9.756;2023-08-20T05:00:00;6.40;;;4.97;;
3207;SDS011;1616;52.394;9.756;2023-08-20T05:02:26;4.27;;;3.87;;
3207;SDS011;1616;52.394;9.756;2023-08-20T05:04:51;4.60;;;3.97;;
3207;SDS011;1616;52.394;9.756;2023-08-20T05:07:17;3.93;;;3.73;;
3207;SDS011;1616;52.394;9.756;2023-08-20T05:09:43;4.00;;;3.63;;
3207;SDS011;1616;52.394;9.756;2023-08-20T05:12:09;4.00;;;3.70;;
3207;SDS011;1616;52.394;9.756;2023-08-20T05:14:35;3.77;;;3.57;;
3207;SDS011;1616;52.394;9.756;2023-08-20T05:17:00;4.50;;;2.77;;
3207;SDS011;1616;52.394;9.756;2023-08-20T05:19:26;2.80;;;2.60;;
3207;SDS011;1616;52.394;9.756;2023-08-20T05:21:52;4.40;;;3.47;;
3207;SDS011;1616;52.394;9.756;2023-08-20T05:24:21;4.37;;;3.87;;
3207;SDS011;1616;52.394;9.756;2023-08-20T05:26:49;4.17;;;2.97;;
3207;SDS011;1616;52.394;9.756;2023-08-20T05:29:34;8.30;;;3.20;;
3207;SDS011;1616;52.394;9.756;2023-08-20T05:32:00;5.90;;;2.90;;
3207;SDS011;1616;52.394;9.756;2023-08-20T05:34:25;3.50;;;3.27;;
3207;SDS011;1616;52.394;9.756;2023-08-20T05:36:51;4.77;;;2.30;;
3207;SDS011;1616;52.394;9.756;2023-08-20T05:39:17;2.73;;;2.50;;
3207;SDS011;1616;52.394;9.756;2023-08-20T05:41:42;3.83;;;3.43;;
3207;SDS011;1616;52.394;9.756;2023-08-20T05:44:09;3.00;;;2.60;;
3207;SDS011;1616;52.394;9.756;2023-08-20T05:46:35;5.03;;;2.90;;
3207;SDS011;1616;52.394;9.756;2023-08-20T05:49:00;2.50;;;2.30;;
3207;SDS011;1616;52.394;9.756;2023-08-20T05:51:26;3.93;;;2.67;;
3207;SDS011;1616;52.394;9.756;2023-08-20T05:53:52;4.00;;;2.20;;
3207;SDS011;1616;52.394;9.756;2023-08-20T05:56:18;3.60;;;2.53;;
3207;SDS011;1616;52.394;9.756;2023-08-20T05:58:43;4.10;;;2.60;;
3207;SDS011;1616;52.394;9.756;2023-08-20T06:01:09;2.33;;;2.13;;
3207;SDS011;1616;52.394;9.756;2023-08-20T06:03:35;3.37;;;3.17;;
3207;SDS011;1616;52.394;9.756;2023-08-20T06:06:01;4.20;;;3.17;;
3207;SDS011;1616;52.394;9.756;2023-08-20T06:08:27;5.60;;;2.33;;
3207;SDS011;1616;52.394;9.756;2023-08-20T06:10:53;2.90;;;2.10;;
3207;SDS011;1616;52.394;9.756;2023-08-20T06:13:19;3.77;;;2.63;;
3207;SDS011;1616;52.394;9.756;2023-08-20T06:15:44;5.10;;;2.20;;
3207;SDS011;1616;52.394;9.756;2023-08-20T06:18:10;4.23;;;2.50;;
3207;SDS011;1616;52.394;9.756;2023-08-20T06:20:36;2.07;;;1.90;;
3207;SDS011;1616;52.394;9.756;2023-08-20T06:23:01;1.83;;;1.63;;
3207;SDS011;1616;52.394;9.756;2023-08-20T06:25:27;3.53;;;1.90;;
3207;SDS011;1616;52.394;9.756;2023-08-20T06:27:53;2.00;;;1.80;;
3207;SDS011;1616;52.394;9.756;2023-08-20T06:30:19;2.33;;;1.50;;
3207;SDS011;1616;52.394;9.756;2023-08-20T06:32:45;1.98;;;1.77;;
3207;SDS011;1616;52.394;9.756;2023-08-20T06:35:11;2.37;;;1.80;;
3207;SDS011;1616;52.394;9.756;2023-08-20T06:37:38;1.92;;;1.60;;
3207;SDS011;1616;52.394;9.756;2023-08-20T06:40:05;2.23;;;1.53;;
3207;SDS011;1616;52.394;9.756;2023-08-20T06:42:32;1.80;;;1.50;;
3207;SDS011;1616;52.394;9.756;2023-08-20T06:44:58;3.93;;;1.40;;
3207;SDS011;1616;52.394;9.756;2023-08-20T06:47:23;1.90;;;1.80;;
3207;SDS011;1616;52.394;9.756;2023-08-20T06:49:49;1.87;;;1.70;;
3207;SDS011;1616;52.394;9.756;2023-08-20T06:52:15;1.93;;;1.50;;
3207;SDS011;1616;52.394;9.756;2023-08-20T06:54:41;2.33;;;1.80;;
3207;SDS011;1616;52.394;9.756;2023-08-20T06:57:07;1.87;;;1.50;;
3207;SDS011;1616;52.394;9.756;2023-08-20T06:59:33;2.85;;;1.80;;
3207;SDS011;1616;52.394;9.756;2023-08-20T07:01:59;6.45;;;1.60;;
3207;SDS011;1616;52.394;9.756;2023-08-20T07:04:25;4.90;;;1.60;;
3207;SDS011;1616;52.394;9.756;2023-08-20T07:06:51;1.60;;;1.30;;
3207;SDS011;1616;52.394;9.756;2023-08-20T07:09:17;1.63;;;1.48;;
3207;SDS011;1616;52.394;9.756;2023-08-20T07:11:42;1.90;;;1.10;;
3207;SDS011;1616;52.394;9.756;2023-08-20T07:14:08;2.65;;;1.45;;
3207;SDS011;1616;52.394;9.756;2023-08-20T07:16:34;1.88;;;1.50;;
3207;SDS011;1616;52.394;9.756;2023-08-20T07:18:59;1.83;;;1.40;;
3207;SDS011;1616;52.394;9.756;2023-08-20T07:21:25;1.67;;;1.40;;
3207;SDS011;1616;52.394;9.756;2023-08-20T07:23:51;3.85;;;1.50;;
3207;SDS011;1616;52.394;9.756;2023-08-20T07:26:17;2.50;;;1.60;;
3207;SDS011;1616;52.394;9.756;2023-08-20T07:28:43;2.50;;;1.30;;
3207;SDS011;1616;52.394;9.756;2023-08-20T07:31:25;2.22;;;1.50;;
3207;SDS011;1616;52.394;9.756;2023-08-20T07:33:55;2.30;;;1.67;;
3207;SDS011;1616;52.394;9.756;2023-08-20T07:36:23;2.85;;;1.42;;
3207;SDS011;1616;52.394;9.756;2023-08-20T07:38:50;3.75;;;1.67;;
3207;SDS011;1616;52.394;9.756;2023-08-20T07:41:16;2.22;;;1.40;;
3207;SDS011;1616;52.394;9.756;2023-08-20T07:43:42;1.20;;;1.10;;
3207;SDS011;1616;52.394;9.756;2023-08-20T07:46:09;2.05;;;1.42;;
3207;SDS011;1616;52.394;9.756;2023-08-20T07:48:35;2.40;;;1.20;;
3207;SDS011;1616;52.394;9.756;2023-08-20T07:51:02;1.67;;;1.30;;
3207;SDS011;1616;52.394;9.756;2023-08-20T07:53:28;2.10;;;1.50;;
3207;SDS011;1616;52.394;9.756;2023-08-20T07:55:55;1.33;;;1.23;;
3207;SDS011;1616;52.394;9.756;2023-08-20T07:58:21;1.63;;;1.20;;
3207;SDS011;1616;52.394;9.756;2023-08-20T08:00:47;1.50;;;1.20;;
3207;SDS011;1616;52.394;9.756;2023-08-20T08:03:20;3.17;;;1.40;;
3207;SDS011;1616;52.394;9.756;2023-08-20T08:06:15;1.65;;;1.30;;
3207;SDS011;1616;52.394;9.756;2023-08-20T08:08:42;1.75;;;1.30;;
3207;SDS011;1616;52.394;9.756;2023-08-20T08:11:09;1.30;;;1.13;;
3207;SDS011;1616;52.394;9.756;2023-08-20T08:13:35;1.35;;;1.25;;
3207;SDS011;1616;52.394;9.756;2023-08-20T08:16:00;1.75;;;1.20;;
3207;SDS011;1616;52.394;9.756;2023-08-20T08:18:26;1.60;;;1.20;;
3207;SDS011;1616;52.394;9.756;2023-08-20T08:20:51;1.40;;;1.20;;
3207;SDS011;1616;52.394;9.756;2023-08-20T08:23:17;1.90;;;1.20;;
3207;SDS011;1616;52.394;9.756;2023-08-20T08:25:43;2.65;;;1.23;;
3207;SDS011;1616;52.394;9.756;2023-08-20T08:28:08;1.50;;;1.20;;
3207;SDS011;1616;52.394;9.756;2023-08-20T08:30:34;2.28;;;1.25;;
3207;SDS011;1616;52.394;9.756;2023-08-20T08:33:00;1.83;;;1.23;;
3207;SDS011;1616;52.394;9.756;2023-08-20T08:35:25;2.25;;;1.20;;
3207;SDS011;1616;52.394;9.756;2023-08-20T08:37:51;1.52;;;1.20;;
3207;SDS011;1616;52.394;9.756;2023-08-20T08:40:17;2.67;;;1.30;;
3207;SDS011;1616;52.394;9.756;2023-08-20T08:42:43;3.95;;;1.40;;
3207;SDS011;1616;52.394;9.756;2023-08-20T08:45:14;1.60;;;1.45;;
3207;SDS011;1616;52.394;9.756;2023-08-20T08:47:41;1.40;;;1.20;;
3207;SDS011;1616;52.394;9.756;2023-08-20T08:50:08;1.35;;;1.13;;
3207;SDS011;1616;52.394;9.756;2023-08-20T08:52:35;2.50;;;1.30;;
3207;SDS011;1616;52.394;9.756;2023-08-20T08:55:03;3.78;;;1.40;;
3207;SDS011;1616;52.394;9.756;2023-08-20T08:57:30;1.70;;;1.05;;
3207;SDS011;1616;52.394;9.756;2023-08-20T08:59:56;3.03;;;1.20;;
3207;SDS011;1616;52.394;9.756;2023-08-20T09:02:22;1.92;;;1.15;;
3207;SDS011;1616;52.394;9.756;2023-08-20T09:04:48;1.27;;;1.10;;
3207;SDS011;1616;52.394;9.756;2023-08-20T09:07:14;1.98;;;1.25;;
3207;SDS011;1616;52.394;9.756;2023-08-20T09:09:44;1.95;;;1.13;;
3207;SDS011;1616;52.394;9.756;2023-08-20T09:12:17;1.20;;;1.05;;
3207;SDS011;1616;52.394;9.756;2023-08-20T09:14:48;2.80;;;1.10;;
3207;SDS011;1616;52.394;9.756;2023-08-20T09:17:15;1.38;;;1.10;;
3207;SDS011;1616;52.394;9.756;2023-08-20T09:19:45;3.05;;;1.00;;
3207;SDS011;1616;52.394;9.756;2023-08-20T09:22:14;3.08;;;1.20;;
3207;SDS011;1616;52.394;9.756;2023-08-20T09:24:51;2.75;;;1.30;;
3207;SDS011;1616;52.394;9.756;2023-08-20T09:27:21;1.52;;;1.10;;
3207;SDS011;1616;52.394;9.756;2023-08-20T09:29:48;1.30;;;1.10;;
3207;SDS011;1616;52.394;9.756;2023-08-20T09:32:16;1.20;;;1.10;;
3207;SDS011;1616;52.394;9.756;2023-08-20T09:34:43;1.30;;;1.10;;
3207;SDS011;1616;52.394;9.756;2023-08-20T09:37:12;1.85;;;1.17;;
3207;SDS011;1616;52.394;9.756;2023-08-20T09:39:40;1.30;;;0.95;;
3207;SDS011;1616;52.394;9.756;2023-08-20T09:42:06;1.20;;;1.05;;
3207;SDS011;1616;52.394;9.756;2023-08-20T09:44:34;1.55;;;1.00;;
3207;SDS011;1616;52.394;9.756;2023-08-20T09:47:01;2.05;;;1.20;;
3207;SDS011;1616;52.394;9.756;2023-08-20T09:49:30;3.92;;;1.08;;
3207;SDS011;1616;52.394;9.756;2023-08-20T09:51:58;1.98;;;1.00;;
3207;SDS011;1616;52.394;9.756;2023-08-20T09:57:12;2.53;;;1.30;;
3207;SDS011;1616;52.394;9.756;2023-08-20T09:59:47;1.25;;;1.15;;
3207;SDS011;1616;52.394;9.756;2023-08-20T10:02:14;1.27;;;1.05;;
3207;SDS011;1616;52.394;9.756;2023-08-20T10:04:41;1.50;;;1.20;;
3207;SDS011;1616;52.394;9.756;2023-08-20T10:07:08;1.42;;;1.10;;
3207;SDS011;1616;52.394;9.756;2023-08-20T10:09:35;1.38;;;1.10;;
3207;SDS011;1616;52.394;9.756;2023-08-20T10:12:03;1.15;;;0.90;;
3207;SDS011;1616;52.394;9.756;2023-08-20T10:14:29;1.10;;;1.00;;
3207;SDS011;1616;52.394;9.756;2023-08-20T10:16:55;2.38;;;0.90;;
3207;SDS011;1616;52.394;9.756;2023-08-20T10:19:21;3.10;;;0.90;;
3207;SDS011;1616;52.394;9.756;2023-08-20T10:21:51;3.15;;;0.90;;
3207;SDS011;1616;52.394;9.756;2023-08-20T10:24:17;2.65;;;0.90;;
3207;SDS011;1616;52.394;9.756;2023-08-20T10:26:47;1.17;;;0.90;;
3207;SDS011;1616;52.394;9.756;2023-08-20T10:32:06;1.10;;;0.90;;
3207;SDS011;1616;52.394;9.756;2023-08-20T10:34:36;1.10;;;1.00;;
3207;SDS011;1616;52.394;9.756;2023-08-20T10:37:10;1.08;;;0.80;;
3207;SDS011;1616;52.394;9.756;2023-08-20T10:39:38;1.00;;;0.70;;
3207;SDS011;1616;52.394;9.756;2023-08-20T10:42:21;2.58;;;0.80;;
3207;SDS011;1616;52.394;9.756;2023-08-20T10:44:57;1.17;;;0.80;;
3207;SDS011;1616;52.394;9.756;2023-08-20T10:47:42;1.20;;;0.80;;
3207;SDS011;1616;52.394;9.756;2023-08-20T10:50:16;1.15;;;0.70;;
3207;SDS011;1616;52.394;9.756;2023-08-20T10:52:50;1.42;;;1.00;;
3207;SDS011;1616;52.394;9.756;2023-08-20T10:55:21;2.17;;;1.00;;
3207;SDS011;1616;52.394;9.756;2023-08-20T10:57:54;1.92;;;1.02;;
3207;SDS011;1616;52.394;9.756;2023-08-20T11:00:24;1.38;;;1.08;;
3207;SDS011;1616;52.394;9.756;2023-08-20T11:02:51;1.75;;;1.65;;
3207;SDS011;1616;52.394;9.756;2023-08-20T11:05:18;6.35;;;4.80;;
3207;SDS011;1616;52.394;9.756;2023-08-20T11:07:47;1.20;;;0.80;;
3207;SDS011;1616;52.394;9.756;2023-08-20T11:10:14;1.20;;;0.90;;
3207;SDS011;1616;52.394;9.756;2023-08-20T11:12:41;1.27;;;0.80;;
3207;SDS011;1616;52.394;9.756;2023-08-20T11:15:09;1.70;;;0.90;;
3207;SDS011;1616;52.394;9.756;2023-08-20T11:17:39;1.30;;;0.98;;
3207;SDS011;1616;52.394;9.756;2023-08-20T11:20:14;1.38;;;0.90;;
3207;SDS011;1616;52.394;9.756;2023-08-20T11:22:40;0.98;;;0.80;;
3207;SDS011;1616;52.394;9.756;2023-08-20T11:25:10;2.33;;;0.90;;
3207;SDS011;1616;52.394;9.756;2023-08-20T11:27:46;1.30;;;0.80;;
3207;SDS011;1616;52.394;9.756;2023-08-20T11:30:13;2.25;;;0.80;;
3207;SDS011;1616;52.394;9.756;2023-08-20T11:32:38;1.02;;;0.70;;
3207;SDS011;1616;52.394;9.756;2023-08-20T11:35:05;1.10;;;0.80;;
3207;SDS011;1616;52.394;9.756;2023-08-20T11:37:32;2.58;;;0.80;;
3207;SDS011;1616;52.394;9.756;2023-08-20T11:39:58;1.10;;;0.80;;
3207;SDS011;1616;52.394;9.756;2023-08-20T11:42:24;1.10;;;0.90;;
3207;SDS011;1616;52.394;9.756;2023-08-20T11:44:50;1.42;;;0.80;;
3207;SDS011;1616;52.394;9.756;2023-08-20T11:47:20;1.23;;;0.90;;
3207;SDS011;1616;52.394;9.756;2023-08-20T11:49:45;1.17;;;0.80;;
3207;SDS011;1616;52.394;9.756;2023-08-20T11:52:11;1.55;;;1.00;;
3207;SDS011;1616;52.394;9.756;2023-08-20T11:54:38;0.90;;;0.80;;
3207;SDS011;1616;52.394;9.756;2023-08-20T11:57:05;1.25;;;0.88;;
3207;SDS011;1616;52.394;9.756;2023-08-20T11:59:32;1.55;;;1.00;;
3207;SDS011;1616;52.394;9.756;2023-08-20T12:02:02;3.83;;;1.00;;
3207;SDS011;1616;52.394;9.756;2023-08-20T12:04:29;1.13;;;0.90;;
3207;SDS011;1616;52.394;9.756;2023-08-20T12:09:42;2.00;;;1.00;;
3207;SDS011;1616;52.394;9.756;2023-08-20T12:12:08;1.75;;;1.10;;
3207;SDS011;1616;52.394;9.756;2023-08-20T12:14:34;1.20;;;1.00;;
3207;SDS011;1616;52.394;9.756;2023-08-20T12:17:00;1.25;;;0.77;;
3207;SDS011;1616;52.394;9.756;2023-08-20T12:19:26;1.85;;;1.20;;
3207;SDS011;1616;52.394;9.756;2023-08-20T12:21:52;1.30;;;0.90;;
3207;SDS011;1616;52.394;9.756;2023-08-20T12:24:17;1.20;;;1.08;;
3207;SDS011;1616;52.394;9.756;2023-08-20T12:26:46;1.17;;;1.00;;
3207;SDS011;1616;52.394;9.756;2023-08-20T12:29:12;1.02;;;0.90;;
3207;SDS011;1616;52.394;9.756;2023-08-20T12:31:39;1.10;;;1.00;;
3207;SDS011;1616;52.394;9.756;2023-08-20T12:34:06;3.03;;;1.05;;
3207;SDS011;1616;52.394;9.756;2023-08-20T12:36:31;1.48;;;1.17;;
3207;SDS011;1616;52.394;9.756;2023-08-20T12:38:57;1.70;;;0.95;;
3207;SDS011;1616;52.394;9.756;2023-08-20T12:41:23;1.80;;;1.10;;
3207;SDS011;1616;52.394;9.756;2023-08-20T12:43:49;1.48;;;1.23;;
3207;SDS011;1616;52.394;9.756;2023-08-20T12:46:14;1.30;;;1.00;;
3207;SDS011;1616;52.394;9.756;2023-08-20T12:48:41;1.20;;;1.02;;
3207;SDS011;1616;52.394;9.756;2023-08-20T12:51:07;1.58;;;1.17;;
3207;SDS011;1616;52.394;9.756;2023-08-20T12:53:33;3.22;;;1.10;;
3207;SDS011;1616;52.394;9.756;2023-08-20T12:55:59;1.23;;;1.13;;
3207;SDS011;1616;52.394;9.756;2023-08-20T12:58:25;1.10;;;1.00;;
3207;SDS011;1616;52.394;9.756;2023-08-20T13:00:51;1.27;;;1.05;;
3207;SDS011;1616;52.394;9.756;2023-08-20T13:03:17;1.05;;;0.93;;
3207;SDS011;1616;52.394;9.756;2023-08-20T13:05:43;1.83;;;1.05;;
3207;SDS011;1616;52.394;9.756;2023-08-20T13:08:10;1.55;;;1.30;;
3207;SDS011;1616;52.394;9.756;2023-08-20T13:10:38;2.08;;;1.00;;
3207;SDS011;1616;52.394;9.756;2023-08-20T13:13:05;1.48;;;1.10;;
3207;SDS011;1616;52.394;9.756;2023-08-20T13:15:35;2.58;;;1.10;;
3207;SDS011;1616;52.394;9.756;2023-08-20T13:18:01;1.30;;;1.20;;
3207;SDS011;1616;52.394;9.756;2023-08-20T13:20:27;1.20;;;1.10;;
3207;SDS011;1616;52.394;9.756;2023-08-20T13:22:53;1.38;;;1.23;;
3207;SDS011;1616;52.394;9.756;2023-08-20T13:25:19;1.40;;;1.30;;
3207;SDS011;1616;52.394;9.756;2023-08-20T13:27:48;6.70;;;1.23;;
3207;SDS011;1616;52.394;9.756;2023-08-20T13:30:14;3.60;;;1.20;;
3207;SDS011;1616;52.394;9.756;2023-08-20T13:32:41;2.80;;;1.40;;
3207;SDS011;1616;52.394;9.756;2023-08-20T13:35:06;1.33;;;1.17;;
3207;SDS011;1616;52.394;9.756;2023-08-20T13:37:33;1.40;;;1.30;;
3207;SDS011;1616;52.394;9.756;2023-08-20T13:39:59;1.65;;;1.55;;
3207;SDS011;1616;52.394;9.756;2023-08-20T13:42:25;1.35;;;1.20;;
3207;SDS011;1616;52.394;9.756;2023-08-20T13:44:51;1.55;;;1.35;;
3207;SDS011;1616;52.394;9.756;2023-08-20T13:47:17;1.42;;;1.20;;
3207;SDS011;1616;52.394;9.756;2023-08-20T13:49:43;3.40;;;1.50;;
3207;SDS011;1616;52.394;9.756;2023-08-20T13:52:09;1.85;;;1.30;;
3207;SDS011;1616;52.394;9.756;2023-08-20T13:54:35;1.55;;;1.45;;
3207;SDS011;1616;52.394;9.756;2023-08-20T13:57:02;2.65;;;1.40;;
3207;SDS011;1616;52.394;9.756;2023-08-20T13:59:31;6.33;;;1.27;;
3207;SDS011;1616;52.394;9.756;2023-08-20T14:01:57;1.73;;;1.40;;
3207;SDS011;1616;52.394;9.756;2023-08-20T14:04:23;1.50;;;1.40;;
3207;SDS011;1616;52.394;9.756;2023-08-20T14:06:49;1.80;;;1.70;;
3207;SDS011;1616;52.394;9.756;2023-08-20T14:09:15;2.13;;;1.40;;
3207;SDS011;1616;52.394;9.756;2023-08-20T14:11:42;2.00;;;1.40;;
3207;SDS011;1616;52.394;9.756;2023-08-20T14:14:08;3.00;;;1.30;;
3207;SDS011;1616;52.394;9.756;2023-08-20T14:16:34;1.80;;;1.40;;
3207;SDS011;1616;52.394;9.756;2023-08-20T14:18:59;1.47;;;1.37;;
3207;SDS011;1616;52.394;9.756;2023-08-20T14:21:25;1.30;;;1.20;;
3207;SDS011;1616;52.394;9.756;2023-08-20T14:23:51;1.60;;;1.40;;
3207;SDS011;1616;52.394;9.756;2023-08-20T14:26:17;2.90;;;2.03;;
3207;SDS011;1616;52.394;9.756;2023-08-20T14:28:43;3.40;;;1.73;;
3207;SDS011;1616;52.394;9.756;2023-08-20T14:31:09;1.90;;;1.50;;
3207;SDS011;1616;52.394;9.756;2023-08-20T14:33:35;1.57;;;1.47;;
3207;SDS011;1616;52.394;9.756;2023-08-20T14:36:01;1.50;;;1.40;;
3207;SDS011;1616;52.394;9.756;2023-08-20T14:38:28;3.63;;;1.40;;
3207;SDS011;1616;52.394;9.756;2023-08-20T14:40:54;1.50;;;1.40;;
3207;SDS011;1616;52.394;9.756;2023-08-20T14:43:27;1.83;;;1.57;;
3207;SDS011;1616;52.394;9.756;2023-08-20T14:45:53;3.53;;;1.50;;
3207;SDS011;1616;52.394;9.756;2023-08-20T14:48:21;1.40;;;1.30;;
3207;SDS011;1616;52.394;9.756;2023-08-20T14:50:47;1.90;;;1.50;;
3207;SDS011;1616;52.394;9.756;2023-08-20T14:53:14;2.40;;;1.60;;
3207;SDS011;1616;52.394;9.756;2023-08-20T14:55:39;2.53;;;1.60;;
3207;SDS011;1616;52.394;9.756;2023-08-20T14:58:05;1.80;;;1.70;;
3207;SDS011;1616;52.394;9.756;2023-08-20T15:00:34;1.70;;;1.60;;
3207;SDS011;1616;52.394;9.756;2023-08-20T15:03:01;1.70;;;1.60;;
3207;SDS011;1616;52.394;9.756;2023-08-20T15:05:28;1.50;;;1.40;;
3207;SDS011;1616;52.394;9.756;2023-08-20T15:07:54;1.87;;;1.67;;
3207;SDS011;1616;52.394;9.756;2023-08-20T15:10:20;1.90;;;1.80;;
3207;SDS011;1616;52.394;9.756;2023-08-20T15:12:46;2.57;;;1.50;;
3207;SDS011;1616;52.394;9.756;2023-08-20T15:15:12;1.90;;;1.80;;
3207;SDS011;1616;52.394;9.756;2023-08-20T15:17:37;1.30;;;1.20;;
3207;SDS011;1616;52.394;9.756;2023-08-20T15:20:03;5.10;;;1.60;;
3207;SDS011;1616;52.394;9.756;2023-08-20T15:22:31;1.60;;;1.50;;
3207;SDS011;1616;52.394;9.756;2023-08-20T15:24:56;2.37;;;2.17;;
3207;SDS011;1616;52.394;9.756;2023-08-20T15:27:25;4.30;;;4.00;;